Time;durP1;ratioP1;P1;durP2;ratioP2;P2;SDS_P1;SDS_P2;PMS_P1;PMS_P2;Temp;Humidity;BMP_temperature;BMP_pressure;BME280_temperature;BME280_humidity;BME280_pressure;Samples;Min_cycle;Max_cycle;Signal;HPM_P1;HPM_P2
2022/10/22 00:01:11;;;;;;;22.33;11.70;;;12.00;99.90;;;;;;6179194;23;20021;-81
2022/10/22 00:03:37;;;;;;;26.02;13.40;;;12.00;99.90;;;;;;6153960;23;20091;-82
2022/10/22 00:06:03;;;;;;;19.73;12.52;;;12.00;99.90;;;;;;6128824;23;20025;-82
2022/10/22 00:08:29;;;;;;;19.88;11.82;;;11.90;99.90;;;;;;6155799;23;20081;-82
2022/10/22 00:10:55;;;;;;;23.73;12.75;;;11.90;99.90;;;;;;6128461;23;20017;-82
2022/10/22 00:13:21;;;;;;;19.15;12.38;;;11.80;99.90;;;;;;6154591;23;20025;-81
2022/10/22 00:15:47;;;;;;;27.40;13.85;;;11.80;99.90;;;;;;6154647;23;20025;-82
2022/10/22 00:18:13;;;;;;;27.50;14.05;;;11.80;99.90;;;;;;6154128;23;20079;-82
2022/10/22 00:20:39;;;;;;;28.52;14.05;;;11.80;99.90;;;;;;6178318;23;20021;-82
2022/10/22 00:23:05;;;;;;;23.98;13.63;;;11.70;99.90;;;;;;6178955;23;20052;-82
2022/10/22 00:25:34;;;;;;;23.23;13.32;;;11.70;99.90;;;;;;6154400;23;20021;-81
2022/10/22 00:28:00;;;;;;;25.60;14.38;;;11.60;99.90;;;;;;6177501;23;20028;-82
2022/10/22 00:30:26;;;;;;;25.65;13.32;;;11.60;99.90;;;;;;6154783;23;20095;-82
2022/10/22 00:32:51;;;;;;;26.25;14.93;;;11.60;99.90;;;;;;6179638;23;20052;-84
2022/10/22 00:35:17;;;;;;;24.40;13.00;;;11.60;99.90;;;;;;6154239;23;20025;-82
2022/10/22 00:37:43;;;;;;;22.30;12.55;;;11.60;99.90;;;;;;6154185;23;20083;-82
2022/10/22 00:40:09;;;;;;;24.20;12.75;;;11.60;99.90;;;;;;6153948;23;20024;-82
2022/10/22 00:42:35;;;;;;;23.10;13.45;;;11.50;99.90;;;;;;6129877;23;20108;-82
2022/10/22 00:45:10;;;;;;;24.38;13.00;;;11.50;99.90;;;;;;6153926;23;20052;-82
2022/10/22 00:47:41;;;;;;;29.15;15.52;;;11.50;99.90;;;;;;6153874;23;20052;-82
2022/10/22 00:50:14;;;;;;;22.50;12.98;;;11.50;99.90;;;;;;6151418;23;20021;-83
2022/10/22 00:52:40;;;;;;;23.27;13.88;;;11.40;99.90;;;;;;6178447;23;20099;-82
2022/10/22 00:55:07;;;;;;;28.05;13.80;;;11.40;99.90;;;;;;6151477;23;20136;-83
2022/10/22 00:57:34;;;;;;;24.85;14.38;;;11.40;99.90;;;;;;6153005;23;20017;-82
2022/10/22 01:00:00;;;;;;;28.30;14.18;;;11.30;99.90;;;;;;6177206;23;20020;-82
2022/10/22 01:02:26;;;;;;;28.85;14.30;;;11.40;99.90;;;;;;6154487;23;20048;-82
2022/10/22 01:04:52;;;;;;;30.02;15.30;;;11.30;99.90;;;;;;6178689;23;20071;-83
2022/10/22 01:07:21;;;;;;;29.00;14.00;;;11.30;99.90;;;;;;6130101;23;20486;-83
2022/10/22 01:10:18;;;;;;;26.02;13.82;;;11.10;99.90;;;;;;6178707;23;20025;-82
2022/10/22 01:12:56;;;;;;;25.10;13.75;;;11.20;99.90;;;;;;6169952;23;20021;-83
2022/10/22 01:15:23;;;;;;;20.58;13.35;;;11.20;99.90;;;;;;6154064;23;20108;-82
2022/10/22 01:18:05;;;;;;;27.73;14.32;;;11.20;99.90;;;;;;6154103;23;20017;-82
2022/10/22 01:20:55;;;;;;;32.60;16.05;;;11.20;99.90;;;;;;6154471;23;20020;-82
2022/10/22 01:24:08;;;;;;;30.13;14.93;;;11.20;99.90;;;;;;6178556;23;20013;-82
2022/10/22 01:26:39;;;;;;;29.20;15.50;;;11.30;99.90;;;;;;6150943;23;20025;-82
2022/10/22 01:29:15;;;;;;;29.20;15.32;;;11.30;99.90;;;;;;6178048;23;20340;-82
2022/10/22 01:31:52;;;;;;;31.05;16.85;;;11.30;99.90;;;;;;6179368;23;20036;-82
2022/10/22 01:34:19;;;;;;;33.92;17.08;;;11.40;99.90;;;;;;6153986;23;20024;-83
2022/10/22 01:36:47;;;;;;;33.67;17.20;;;11.40;99.90;;;;;;6179323;23;20021;-82
2022/10/22 01:39:15;;;;;;;35.80;17.90;;;11.50;99.90;;;;;;6153205;23;20017;-82
2022/10/22 01:41:44;;;;;;;37.65;17.75;;;11.50;99.90;;;;;;6178523;23;20017;-82
2022/10/22 01:44:34;;;;;;;38.67;19.30;;;11.50;99.90;;;;;;6153859;23;20099;-83
2022/10/22 01:47:11;;;;;;;38.55;18.80;;;11.50;99.90;;;;;;6179317;23;20067;-82
2022/10/22 01:49:56;;;;;;;45.70;20.50;;;11.60;99.90;;;;;;6153767;23;20056;-83
2022/10/22 01:53:17;;;;;;;40.92;18.85;;;11.50;99.90;;;;;;6153345;23;20092;-82
2022/10/22 01:56:24;;;;;;;33.70;18.23;;;11.60;99.90;;;;;;6097696;23;20588;-83
2022/10/22 01:59:09;;;;;;;36.40;18.47;;;11.50;99.90;;;;;;6078201;23;20086;-84
2022/10/22 02:02:05;;;;;;;34.97;17.85;;;11.50;99.90;;;;;;6178438;23;20040;-82
2022/10/22 02:04:42;;;;;;;36.80;18.42;;;11.50;99.90;;;;;;6154486;23;20075;-82
2022/10/22 02:07:12;;;;;;;32.30;18.65;;;11.50;99.90;;;;;;6153955;23;20017;-83
2022/10/22 02:09:40;;;;;;;32.00;17.08;;;11.50;99.90;;;;;;6154483;23;20076;-82
2022/10/22 02:12:07;;;;;;;39.35;18.50;;;11.50;99.90;;;;;;6129045;23;20520;-83
2022/10/22 02:14:36;;;;;;;39.60;18.98;;;11.50;99.90;;;;;;6154403;23;20020;-82
2022/10/22 02:17:03;;;;;;;41.80;20.23;;;11.60;99.90;;;;;;6154433;23;20136;-82
2022/10/22 02:19:39;;;;;;;47.33;21.48;;;11.60;99.90;;;;;;6178097;23;20021;-83
2022/10/22 02:22:05;;;;;;;28.98;18.45;;;11.60;99.90;;;;;;6154500;23;20025;-82
2022/10/22 02:24:30;;;;;;;44.63;21.10;;;11.60;99.90;;;;;;6153643;23;20067;-82
2022/10/22 02:27:11;;;;;;;44.35;20.88;;;11.70;99.90;;;;;;6178860;23;20017;-83
2022/10/22 02:29:48;;;;;;;37.97;18.88;;;11.70;99.90;;;;;;6155657;23;20017;-82
2022/10/22 02:32:18;;;;;;;38.85;20.52;;;11.70;99.90;;;;;;6154645;23;20449;-82
2022/10/22 02:34:45;;;;;;;41.28;21.55;;;11.80;99.90;;;;;;6156191;23;20460;-82
2022/10/22 02:37:11;;;;;;;35.00;19.88;;;11.70;99.90;;;;;;6131316;23;20017;-82
2022/10/22 02:39:38;;;;;;;40.15;20.98;;;11.80;99.90;;;;;;6179770;23;20052;-82
2022/10/22 02:42:04;;;;;;;40.00;20.60;;;11.90;99.90;;;;;;6156282;23;20222;-82
2022/10/22 02:44:30;;;;;;;40.45;21.25;;;11.90;99.90;;;;;;6180278;23;20009;-82
2022/10/22 02:46:56;;;;;;;36.03;20.23;;;11.90;99.90;;;;;;6155854;23;20511;-82
2022/10/22 02:49:22;;;;;;;42.13;22.05;;;11.90;99.90;;;;;;6179785;23;20744;-82
2022/10/22 02:51:47;;;;;;;41.33;20.70;;;11.90;99.90;;;;;;6131275;23;20092;-83
2022/10/22 02:54:13;;;;;;;44.50;21.30;;;11.90;99.90;;;;;;6154654;23;20459;-83
2022/10/22 02:56:39;;;;;;;41.47;21.52;;;11.90;99.90;;;;;;6155176;23;20091;-81
2022/10/22 02:59:04;;;;;;;42.33;22.08;;;12.00;99.90;;;;;;6130915;23;20040;-82
2022/10/22 03:01:30;;;;;;;37.80;19.08;;;11.90;99.90;;;;;;6180100;23;20024;-82
2022/10/22 03:03:56;;;;;;;49.97;23.67;;;11.90;99.90;;;;;;6155330;23;20024;-82
2022/10/22 03:06:21;;;;;;;32.40;18.67;;;11.80;99.90;;;;;;6155014;23;20072;-81
2022/10/22 03:08:47;;;;;;;40.38;21.25;;;11.70;99.90;;;;;;6180192;23;20071;-82
2022/10/22 03:11:13;;;;;;;43.85;22.63;;;11.70;99.90;;;;;;6155485;23;20021;-84
2022/10/22 03:13:38;;;;;;;46.63;22.58;;;11.70;99.90;;;;;;6106702;23;20099;-81
2022/10/22 03:16:04;;;;;;;43.80;20.95;;;11.60;99.90;;;;;;6154499;23;20024;-82
2022/10/22 03:18:30;;;;;;;46.55;21.08;;;11.60;99.90;;;;;;6129169;23;20028;-82
2022/10/22 03:21:34;;;;;;;46.55;22.10;;;11.50;99.90;;;;;;6130462;23;20021;-82
2022/10/22 03:24:17;;;;;;;43.15;21.30;;;11.50;99.90;;;;;;6154606;23;20016;-82
2022/10/22 03:26:46;;;;;;;40.60;20.63;;;11.40;99.90;;;;;;6155230;23;20385;-82
2022/10/22 03:29:14;;;;;;;42.58;21.95;;;11.40;99.90;;;;;;6180614;23;20017;-82
2022/10/22 03:31:39;;;;;;;46.83;22.30;;;11.40;99.90;;;;;;6155594;23;20025;-81
2022/10/22 03:34:05;;;;;;;49.25;23.00;;;11.30;99.90;;;;;;6155688;23;20024;-82
2022/10/22 03:36:32;;;;;;;40.20;21.02;;;11.40;99.90;;;;;;6155286;23;20017;-82
2022/10/22 03:38:59;;;;;;;54.65;24.48;;;11.40;99.90;;;;;;6180437;23;20013;-82
2022/10/22 03:41:25;;;;;;;42.95;22.40;;;11.40;99.90;;;;;;6179816;23;20108;-83
2022/10/22 03:43:52;;;;;;;48.00;23.60;;;11.40;99.90;;;;;;6180614;23;20009;-82
2022/10/22 03:46:18;;;;;;;45.05;22.90;;;11.40;99.90;;;;;;6131307;23;20079;-85
2022/10/22 03:48:44;;;;;;;44.88;23.00;;;11.30;99.90;;;;;;6131132;23;20033;-83
2022/10/22 03:51:10;;;;;;;47.67;22.48;;;11.40;99.90;;;;;;6155574;23;20024;-83
2022/10/22 03:53:35;;;;;;;51.25;24.63;;;11.40;99.90;;;;;;6155482;23;20045;-82
2022/10/22 03:56:01;;;;;;;46.95;23.45;;;11.40;99.90;;;;;;6154674;23;20459;-82
2022/10/22 03:58:27;;;;;;;53.97;24.05;;;11.40;99.90;;;;;;6154406;23;20021;-82
2022/10/22 04:00:53;;;;;;;50.40;24.60;;;11.40;99.90;;;;;;6178732;23;20017;-84
2022/10/22 04:03:19;;;;;;;51.83;24.75;;;11.40;99.90;;;;;;6130550;23;20028;-83
2022/10/22 04:05:44;;;;;;;54.80;25.83;;;11.40;99.90;;;;;;6154272;23;20025;-82
2022/10/22 04:08:10;;;;;;;45.30;23.48;;;11.40;99.90;;;;;;6154684;23;20352;-82
2022/10/22 04:10:36;;;;;;;53.05;25.30;;;11.40;99.90;;;;;;6103410;23;20017;-82
2022/10/22 04:13:01;;;;;;;49.90;23.75;;;11.40;99.90;;;;;;6179941;23;20079;-82
2022/10/22 04:15:27;;;;;;;36.40;22.45;;;11.30;99.90;;;;;;6152920;23;20770;-82
2022/10/22 04:17:54;;;;;;;48.47;24.42;;;11.30;99.90;;;;;;6177414;23;20021;-83
2022/10/22 04:20:19;;;;;;;44.20;23.80;;;11.30;99.90;;;;;;6153382;23;20024;-83
2022/10/22 04:22:45;;;;;;;51.17;25.52;;;11.30;99.90;;;;;;6153944;23;20096;-83
2022/10/22 04:25:10;;;;;;;50.10;25.88;;;11.30;99.90;;;;;;6130200;23;20017;-82
2022/10/22 04:27:36;;;;;;;63.72;26.40;;;11.20;99.90;;;;;;6153106;23;20017;-85
2022/10/22 04:30:05;;;;;;;43.47;24.20;;;11.20;99.90;;;;;;6153920;23;20017;-82
2022/10/22 04:32:31;;;;;;;52.15;26.00;;;11.20;99.90;;;;;;6178684;23;20072;-82
2022/10/22 04:34:56;;;;;;;53.85;25.75;;;11.20;99.90;;;;;;6155025;23;20024;-82
2022/10/22 04:37:22;;;;;;;59.38;25.98;;;11.20;99.90;;;;;;6130280;23;20021;-82
2022/10/22 04:39:48;;;;;;;54.30;25.33;;;11.20;99.90;;;;;;6177756;23;20025;-82
2022/10/22 04:42:13;;;;;;;53.55;26.25;;;11.20;99.90;;;;;;6154672;23;20055;-82
2022/10/22 04:44:39;;;;;;;53.80;25.50;;;11.10;99.90;;;;;;6179208;23;20017;-81
2022/10/22 04:47:05;;;;;;;61.85;28.33;;;11.20;99.90;;;;;;6179732;23;20027;-82
2022/10/22 04:49:30;;;;;;;57.45;27.08;;;11.20;99.90;;;;;;6153758;23;20104;-82
2022/10/22 04:51:56;;;;;;;51.53;26.65;;;11.20;99.90;;;;;;6129278;23;20684;-82
2022/10/22 04:54:22;;;;;;;54.78;25.80;;;11.20;99.90;;;;;;6105005;23;20025;-82
2022/10/22 04:56:47;;;;;;;51.00;25.20;;;11.10;99.90;;;;;;6153587;23;20644;-82
2022/10/22 04:59:13;;;;;;;52.67;26.45;;;11.20;99.90;;;;;;6129512;23;20433;-82
2022/10/22 05:01:41;;;;;;;59.13;26.92;;;11.20;99.90;;;;;;6178330;23;20084;-82
2022/10/22 05:04:10;;;;;;;56.17;27.00;;;11.20;99.90;;;;;;6154202;23;20488;-82
2022/10/22 05:06:36;;;;;;;52.50;25.85;;;11.10;99.90;;;;;;6178488;23;20105;-81
2022/10/22 05:09:05;;;;;;;52.78;25.75;;;11.10;99.90;;;;;;6154091;23;20032;-81
2022/10/22 05:11:34;;;;;;;54.22;27.60;;;11.20;99.90;;;;;;6152541;23;20100;-83
2022/10/22 05:14:02;;;;;;;52.30;26.65;;;11.10;99.90;;;;;;6154065;23;20152;-82
2022/10/22 05:16:29;;;;;;;56.45;26.30;;;11.10;99.90;;;;;;6154507;23;20017;-82
2022/10/22 05:18:57;;;;;;;56.65;27.02;;;11.20;99.90;;;;;;6153858;23;20087;-82
2022/10/22 05:21:23;;;;;;;50.08;26.90;;;11.10;99.90;;;;;;6178803;23;20035;-82
2022/10/22 05:23:50;;;;;;;54.97;26.90;;;11.20;99.90;;;;;;6153780;23;20017;-81
2022/10/22 05:26:18;;;;;;;48.05;24.75;;;11.10;99.90;;;;;;6180186;23;20096;-82
2022/10/22 05:28:44;;;;;;;59.30;27.13;;;11.10;99.90;;;;;;6178903;23;20087;-83
2022/10/22 05:31:11;;;;;;;60.45;27.23;;;11.10;99.90;;;;;;6154982;23;20064;-82
2022/10/22 05:33:37;;;;;;;54.22;25.40;;;11.10;99.90;;;;;;6153595;23;20024;-82
2022/10/22 05:36:05;;;;;;;51.47;25.58;;;11.10;99.90;;;;;;6154918;23;20630;-83
2022/10/22 05:38:32;;;;;;;54.15;26.00;;;11.10;99.90;;;;;;6129635;23;20021;-82
2022/10/22 05:41:06;;;;;;;55.15;25.85;;;11.10;99.90;;;;;;6154432;23;20507;-81
2022/10/22 05:43:32;;;;;;;57.58;27.30;;;11.10;99.90;;;;;;6154237;23;20021;-82
2022/10/22 05:46:13;;;;;;;62.17;26.80;;;11.10;99.90;;;;;;6153229;23;20017;-81
2022/10/22 05:48:39;;;;;;;58.00;25.95;;;11.10;99.90;;;;;;6178612;23;20024;-82
2022/10/22 05:51:07;;;;;;;61.08;26.42;;;11.20;99.90;;;;;;6154420;23;20391;-81
2022/10/22 05:53:35;;;;;;;57.60;25.52;;;11.10;99.90;;;;;;6154187;23;20437;-81
2022/10/22 05:56:06;;;;;;;58.35;26.38;;;11.20;99.90;;;;;;6178276;23;20441;-82
2022/10/22 05:58:32;;;;;;;50.13;24.95;;;11.20;99.90;;;;;;6153734;23;20025;-83
2022/10/22 06:01:07;;;;;;;68.65;28.25;;;11.30;99.90;;;;;;6176528;23;20107;-82
2022/10/22 06:03:33;;;;;;;55.83;26.42;;;11.30;99.90;;;;;;6176913;23;20429;-85
2022/10/22 06:06:01;;;;;;;49.78;24.85;;;11.40;99.90;;;;;;6177380;23;20024;-80
2022/10/22 06:08:27;;;;;;;46.53;25.00;;;11.40;99.90;;;;;;6153718;23;20028;-80
2022/10/22 06:10:53;;;;;;;52.28;26.85;;;11.50;99.90;;;;;;6153725;23;20025;-80
2022/10/22 06:13:19;;;;;;;48.45;25.20;;;11.50;99.90;;;;;;6178695;23;20020;-79
2022/10/22 06:15:44;;;;;;;54.58;27.58;;;11.50;99.90;;;;;;6153930;23;20032;-80
2022/10/22 06:18:11;;;;;;;46.90;26.15;;;11.60;99.90;;;;;;6129089;23;20409;-80
2022/10/22 06:20:36;;;;;;;53.03;26.92;;;11.60;99.90;;;;;;6129177;23;20053;-79
2022/10/22 06:23:02;;;;;;;56.15;26.42;;;11.60;99.90;;;;;;6178682;23;20017;-79
2022/10/22 06:25:27;;;;;;;50.58;26.15;;;11.70;99.90;;;;;;6128899;23;20025;-79
2022/10/22 06:27:53;;;;;;;48.33;25.35;;;11.70;99.90;;;;;;6129788;23;20029;-81
2022/10/22 06:30:19;;;;;;;48.58;25.80;;;11.70;99.90;;;;;;6176862;23;20031;-79
2022/10/22 06:32:44;;;;;;;55.40;25.52;;;11.70;99.90;;;;;;6128482;23;20036;-81
2022/10/22 06:35:10;;;;;;;51.55;26.20;;;11.70;99.90;;;;;;6153987;23;20384;-80
2022/10/22 06:37:37;;;;;;;43.95;24.15;;;11.70;99.90;;;;;;6148801;23;20506;-80
2022/10/22 06:40:03;;;;;;;46.17;23.10;;;11.70;99.90;;;;;;6152407;23;20596;-82
2022/10/22 06:42:28;;;;;;;56.03;25.48;;;11.80;99.90;;;;;;6154204;23;20017;-81
2022/10/22 06:44:54;;;;;;;50.25;23.50;;;11.80;99.90;;;;;;6153879;23;20329;-81
2022/10/22 06:47:19;;;;;;;48.50;23.52;;;11.90;99.90;;;;;;6105092;23;20040;-81
2022/10/22 06:49:45;;;;;;;42.05;21.88;;;11.90;99.90;;;;;;6129163;23;20487;-81
2022/10/22 06:52:11;;;;;;;49.83;23.17;;;12.00;99.90;;;;;;6179152;23;20148;-81
2022/10/22 06:54:37;;;;;;;38.38;20.10;;;12.00;99.90;;;;;;6105568;23;20017;-81
2022/10/22 06:57:03;;;;;;;38.13;21.25;;;12.10;99.90;;;;;;6178217;23;20106;-81
2022/10/22 06:59:28;;;;;;;37.85;21.90;;;12.20;99.90;;;;;;6154031;23;20387;-79
2022/10/22 07:01:54;;;;;;;31.17;19.60;;;12.20;99.90;;;;;;6126493;23;20883;-80
2022/10/22 07:04:20;;;;;;;40.38;19.88;;;12.30;99.90;;;;;;6153038;23;20024;-79
2022/10/22 07:06:46;;;;;;;37.60;20.05;;;12.30;99.90;;;;;;6154089;23;20017;-80
2022/10/22 07:09:11;;;;;;;33.47;18.80;;;12.40;99.90;;;;;;6153922;23;20076;-79
2022/10/22 07:11:44;;;;;;;36.63;19.17;;;12.40;99.90;;;;;;6129974;23;20027;-79
2022/10/22 07:14:11;;;;;;;31.65;18.42;;;12.50;99.90;;;;;;6153686;23;20025;-79
2022/10/22 07:16:37;;;;;;;36.67;18.33;;;12.50;99.90;;;;;;6151126;23;20025;-80
2022/10/22 07:19:03;;;;;;;36.75;18.73;;;12.50;99.90;;;;;;6147109;23;20021;-79
2022/10/22 07:21:30;;;;;;;31.48;16.85;;;12.60;99.90;;;;;;6131537;23;20065;-79
2022/10/22 07:23:57;;;;;;;27.67;16.95;;;12.60;99.90;;;;;;6155278;23;20017;-78
2022/10/22 07:26:29;;;;;;;34.28;18.08;;;12.60;99.90;;;;;;6156467;23;20345;-79
2022/10/22 07:28:56;;;;;;;26.60;15.82;;;12.60;99.90;;;;;;6179651;23;20025;-79
2022/10/22 07:31:21;;;;;;;32.40;17.00;;;12.70;99.90;;;;;;6175530;23;20032;-81
2022/10/22 07:33:47;;;;;;;28.48;16.20;;;12.70;99.90;;;;;;6150611;23;20091;-86
2022/10/22 07:36:18;;;;;;;24.42;16.30;;;12.80;99.90;;;;;;6154446;23;20017;-79
2022/10/22 07:38:55;;;;;;;31.67;16.27;;;12.80;99.90;;;;;;6180808;23;20021;-80
2022/10/22 07:41:20;;;;;;;27.48;15.30;;;12.90;99.90;;;;;;6180840;23;20103;-80
2022/10/22 07:43:46;;;;;;;29.60;14.85;;;12.90;99.90;;;;;;6131017;23;20021;-77
2022/10/22 07:46:11;;;;;;;23.23;14.63;;;12.90;99.90;;;;;;6155354;23;20021;-77
2022/10/22 07:48:38;;;;;;;22.88;14.25;;;13.00;99.90;;;;;;6130932;23;20079;-78
2022/10/22 07:51:04;;;;;;;35.17;14.30;;;13.00;99.90;;;;;;6130585;23;20020;-77
2022/10/22 07:53:30;;;;;;;23.83;12.85;;;13.10;99.90;;;;;;6155685;23;20025;-78
2022/10/22 07:55:56;;;;;;;22.27;12.95;;;13.10;99.90;;;;;;6155750;23;20445;-77
2022/10/22 07:58:22;;;;;;;25.45;14.27;;;13.10;99.90;;;;;;6155417;23;20025;-77
2022/10/22 08:00:49;;;;;;;26.73;14.43;;;13.10;99.90;;;;;;6180119;23;20044;-77
2022/10/22 08:03:16;;;;;;;25.85;11.73;;;13.20;99.90;;;;;;6179672;23;20071;-78
2022/10/22 08:05:45;;;;;;;22.33;12.27;;;13.20;99.90;;;;;;6180286;23;20444;-80
2022/10/22 08:08:12;;;;;;;25.95;13.15;;;13.20;99.90;;;;;;6155846;23;20349;-78
2022/10/22 08:10:38;;;;;;;25.50;14.02;;;13.20;99.90;;;;;;6130916;23;20036;-78
2022/10/22 08:13:05;;;;;;;30.63;12.23;;;13.20;99.90;;;;;;6154932;23;20408;-77
2022/10/22 08:15:31;;;;;;;25.20;13.05;;;13.20;99.90;;;;;;6155408;23;20021;-77
2022/10/22 08:17:57;;;;;;;22.13;11.30;;;13.20;99.90;;;;;;6154959;23;20056;-79
2022/10/22 08:20:23;;;;;;;18.38;11.40;;;13.20;99.90;;;;;;6130471;23;20036;-78
2022/10/22 08:22:49;;;;;;;19.90;11.43;;;13.30;99.90;;;;;;6155518;23;20021;-78
2022/10/22 08:25:16;;;;;;;22.38;12.48;;;13.30;99.90;;;;;;6154825;23;20048;-78
2022/10/22 08:27:43;;;;;;;32.40;13.95;;;13.30;99.90;;;;;;6180183;23;20021;-77
2022/10/22 08:30:09;;;;;;;34.90;17.02;;;13.30;99.90;;;;;;6154822;23;20067;-78
2022/10/22 08:32:35;;;;;;;32.30;16.02;;;13.30;99.90;;;;;;6155467;23;20025;-78
2022/10/22 08:35:01;;;;;;;23.33;11.00;;;13.30;99.90;;;;;;6154707;23;20369;-77
2022/10/22 08:37:26;;;;;;;24.98;12.48;;;13.30;99.90;;;;;;6131043;23;20021;-77
2022/10/22 08:39:52;;;;;;;20.75;9.93;;;13.40;99.90;;;;;;6155213;23;20106;-78
2022/10/22 08:42:36;;;;;;;17.85;9.60;;;13.40;99.90;;;;;;6154602;23;20016;-77
2022/10/22 08:45:14;;;;;;;18.15;9.30;;;13.50;99.90;;;;;;6154623;23;20017;-77
2022/10/22 08:48:19;;;;;;;22.40;9.02;;;13.60;99.90;;;;;;6180047;23;20049;-77
2022/10/22 08:50:47;;;;;;;15.43;8.77;;;13.70;99.90;;;;;;6180151;23;20044;-77
2022/10/22 08:53:41;;;;;;;16.90;7.43;;;13.70;99.90;;;;;;6154168;23;20017;-78
2022/10/22 08:56:07;;;;;;;14.90;7.28;;;13.80;99.90;;;;;;6179458;23;20032;-77
2022/10/22 08:58:58;;;;;;;21.73;7.28;;;13.90;99.90;;;;;;6155204;23;20009;-77
2022/10/22 09:01:38;;;;;;;18.48;7.07;;;13.90;99.90;;;;;;6154215;23;20099;-78
2022/10/22 09:04:24;;;;;;;14.15;6.15;;;14.00;99.90;;;;;;6178899;23;20024;-77
2022/10/22 09:06:52;;;;;;;13.82;6.18;;;14.00;99.90;;;;;;6155107;23;20683;-78
2022/10/22 09:09:19;;;;;;;19.63;7.10;;;14.00;99.90;;;;;;6179071;23;20345;-78
2022/10/22 09:11:48;;;;;;;14.65;6.45;;;14.10;99.90;;;;;;6155130;23;20817;-81
2022/10/22 09:14:20;;;;;;;19.60;6.45;;;14.20;99.90;;;;;;6178863;23;20432;-78
2022/10/22 09:17:23;;;;;;;13.98;6.07;;;14.20;99.90;;;;;;6179425;23;20013;-78
2022/10/22 09:20:07;;;;;;;13.82;5.55;;;14.30;99.90;;;;;;6179319;23;20056;-78
2022/10/22 09:22:53;;;;;;;14.60;5.90;;;14.40;99.90;;;;;;6180069;23;20021;-78
2022/10/22 09:25:25;;;;;;;20.80;5.55;;;14.50;99.90;;;;;;6154424;23;20032;-78
2022/10/22 09:27:53;;;;;;;11.82;5.32;;;14.60;99.90;;;;;;6154880;23;20049;-78
2022/10/22 09:30:25;;;;;;;12.27;5.45;;;14.90;99.90;;;;;;6178833;23;20025;-78
2022/10/22 09:32:58;;;;;;;15.32;5.22;;;15.00;99.90;;;;;;6179772;23;20024;-78
2022/10/22 09:35:24;;;;;;;13.38;4.65;;;15.30;99.90;;;;;;6178963;23;20091;-78
2022/10/22 09:37:53;;;;;;;12.10;5.10;;;15.40;99.90;;;;;;6179314;23;20372;-81
2022/10/22 09:40:19;;;;;;;10.13;4.45;;;15.60;99.90;;;;;;6154248;23;20028;-81
2022/10/22 09:42:45;;;;;;;10.00;3.90;;;15.80;99.90;;;;;;6154744;23;20029;-81
2022/10/22 09:45:18;;;;;;;18.42;4.85;;;15.90;99.90;;;;;;6154118;23;20400;-81
2022/10/22 09:47:44;;;;;;;7.45;4.30;;;15.90;99.90;;;;;;6154392;23;20039;-81
2022/10/22 09:50:42;;;;;;;12.13;4.18;;;15.90;99.90;;;;;;6154256;23;20025;-81
2022/10/22 09:53:20;;;;;;;14.43;4.75;;;16.00;99.90;;;;;;6154074;23;20028;-80
2022/10/22 09:55:51;;;;;;;16.08;4.53;;;16.00;99.90;;;;;;6154445;23;20020;-81
2022/10/22 09:58:18;;;;;;;11.18;4.10;;;16.00;99.90;;;;;;6154382;23;20017;-80
2022/10/22 10:00:47;;;;;;;13.25;3.83;;;16.00;99.90;;;;;;6179422;23;20017;-80
2022/10/22 10:03:22;;;;;;;12.93;3.95;;;16.00;99.90;;;;;;6179036;23;20013;-80
2022/10/22 10:05:52;;;;;;;14.48;4.88;;;16.00;99.90;;;;;;6179117;23;20416;-79
2022/10/22 10:08:18;;;;;;;14.40;4.68;;;15.90;99.90;;;;;;6179058;23;20021;-80
2022/10/22 10:10:49;;;;;;;14.13;4.90;;;16.00;99.90;;;;;;6179498;23;20032;-80
2022/10/22 10:13:29;;;;;;;11.63;5.07;;;15.90;99.90;;;;;;6154134;23;20075;-81
2022/10/22 10:16:22;;;;;;;12.77;4.63;;;15.90;99.90;;;;;;6154553;23;20031;-80
2022/10/22 10:18:57;;;;;;;14.95;5.10;;;15.90;99.90;;;;;;6154405;23;20032;-80
2022/10/22 10:21:31;;;;;;;14.60;4.57;;;15.90;99.90;;;;;;6154062;23;20025;-79
2022/10/22 10:24:16;;;;;;;9.63;5.00;;;16.00;99.90;;;;;;6179544;23;20500;-80
2022/10/22 10:26:50;;;;;;;14.90;5.30;;;15.90;99.90;;;;;;6154495;23;20377;-80
2022/10/22 10:29:43;;;;;;;10.77;5.10;;;16.00;99.90;;;;;;6153979;23;20028;-80
2022/10/22 10:32:47;;;;;;;14.38;5.28;;;16.10;99.90;;;;;;6154691;23;20029;-82
2022/10/22 10:35:29;;;;;;;14.30;5.80;;;16.10;99.90;;;;;;6154227;23;20020;-80
2022/10/22 10:38:30;;;;;;;14.02;5.15;;;16.20;99.90;;;;;;6179444;23;20356;-80
2022/10/22 10:40:55;;;;;;;18.13;5.88;;;16.10;99.90;;;;;;6179513;23;20053;-80
2022/10/22 10:43:39;;;;;;;14.68;5.30;;;16.30;99.90;;;;;;6178462;23;20340;-80
2022/10/22 10:46:18;;;;;;;12.13;5.55;;;16.50;99.90;;;;;;6179528;23;20017;-80
2022/10/22 10:49:00;;;;;;;11.57;5.10;;;16.60;99.90;;;;;;6179237;23;20029;-80
2022/10/22 10:51:39;;;;;;;13.40;5.00;;;16.60;99.90;;;;;;6179714;23;20091;-80
2022/10/22 10:54:34;;;;;;;15.70;5.40;;;16.70;99.90;;;;;;6175825;23;20029;-80
2022/10/22 10:57:19;;;;;;;12.65;5.47;;;16.60;99.90;;;;;;6166775;23;20026;-81
2022/10/22 11:00:04;;;;;;;14.15;5.32;;;16.60;99.90;;;;;;6155749;23;20033;-82
2022/10/22 11:03:00;;;;;;;12.88;5.53;;;16.60;99.90;;;;;;6154896;23;20103;-79
2022/10/22 11:05:38;;;;;;;11.93;6.15;;;16.50;99.90;;;;;;6180618;23;20021;-80
2022/10/22 11:08:22;;;;;;;12.20;5.55;;;16.50;99.90;;;;;;6181004;23;20020;-80
2022/10/22 11:10:53;;;;;;;12.13;6.18;;;16.40;99.90;;;;;;6180361;23;20017;-80
2022/10/22 11:13:35;;;;;;;12.65;5.25;;;16.40;99.90;;;;;;6176477;23;20013;-81
2022/10/22 11:16:22;;;;;;;14.43;5.53;;;16.30;99.90;;;;;;6150371;23;20071;-82
2022/10/22 11:18:55;;;;;;;14.68;5.13;;;16.30;99.90;;;;;;6178829;23;20021;-80
2022/10/22 11:21:43;;;;;;;13.85;5.00;;;16.30;99.90;;;;;;6180142;23;20024;-80
2022/10/22 11:24:14;;;;;;;14.15;5.18;;;16.30;99.90;;;;;;6155969;23;20025;-79
2022/10/22 11:27:01;;;;;;;10.27;5.25;;;16.30;99.90;;;;;;6155781;23;20083;-80
2022/10/22 11:29:32;;;;;;;14.27;6.05;;;16.30;99.90;;;;;;6155415;23;20099;-80
2022/10/22 11:32:00;;;;;;;10.50;5.35;;;16.50;99.90;;;;;;6180549;23;20039;-79
2022/10/22 11:34:30;;;;;;;8.93;5.60;;;16.60;99.90;;;;;;6180259;23;20021;-79
2022/10/22 11:36:58;;;;;;;21.35;6.50;;;16.50;99.90;;;;;;6155904;23;20021;-79
2022/10/22 11:39:52;;;;;;;17.98;6.00;;;16.40;99.90;;;;;;6155259;23;20028;-80
2022/10/22 11:42:37;;;;;;;16.45;6.45;;;16.30;99.90;;;;;;6155619;23;20028;-83
2022/10/22 11:45:27;;;;;;;15.50;5.55;;;16.40;99.90;;;;;;6155717;23;20116;-80
2022/10/22 11:48:08;;;;;;;10.82;5.95;;;16.60;99.90;;;;;;6155554;23;20357;-80
2022/10/22 11:50:40;;;;;;;11.05;5.63;;;17.00;99.90;;;;;;6155375;23;20053;-80
2022/10/22 11:53:32;;;;;;;14.30;6.00;;;17.30;99.90;;;;;;6180773;23;20021;-79
2022/10/22 11:56:09;;;;;;;15.35;5.80;;;17.40;99.90;;;;;;6172300;23;20798;-80
2022/10/22 11:58:42;;;;;;;15.35;5.35;;;17.40;99.90;;;;;;6179632;23;20032;-80
2022/10/22 12:01:08;;;;;;;13.20;5.68;;;17.60;99.90;;;;;;6152840;23;20455;-81
2022/10/22 12:03:33;;;;;;;13.15;5.32;;;17.60;99.90;;;;;;6149824;23;20031;-79
2022/10/22 12:06:14;;;;;;;10.70;5.63;;;17.60;99.90;;;;;;6179542;23;20021;-79
2022/10/22 12:08:51;;;;;;;12.65;5.95;;;17.60;99.90;;;;;;6155127;23;20025;-80
2022/10/22 12:11:35;;;;;;;14.50;5.97;;;17.40;99.90;;;;;;6180430;23;20067;-80
2022/10/22 12:14:40;;;;;;;14.43;6.53;;;17.20;99.90;;;;;;6180261;23;20444;-81
2022/10/22 12:17:13;;;;;;;18.98;7.28;;;16.80;99.90;;;;;;6171050;23;20100;-81
2022/10/22 12:19:41;;;;;;;15.38;7.20;;;16.50;99.90;;;;;;6154138;23;20020;-81
2022/10/22 12:22:16;;;;;;;13.80;7.55;;;16.20;99.90;;;;;;6155086;23;20040;-81
2022/10/22 12:24:52;;;;;;;20.83;8.40;;;16.00;99.90;;;;;;6179852;23;20626;-80
2022/10/22 12:27:18;;;;;;;19.02;8.50;;;15.80;99.90;;;;;;6155420;23;20017;-81
2022/10/22 12:29:44;;;;;;;17.27;8.55;;;15.60;99.90;;;;;;6154591;23;20079;-82
2022/10/22 12:32:13;;;;;;;18.65;9.10;;;15.50;99.90;;;;;;6154938;23;20021;-81
2022/10/22 12:34:45;;;;;;;16.48;9.65;;;15.50;99.90;;;;;;6154843;23;20352;-82
2022/10/22 12:37:13;;;;;;;20.55;9.63;;;15.40;99.90;;;;;;6155498;23;20368;-84
2022/10/22 12:39:39;;;;;;;22.00;11.82;;;15.40;99.90;;;;;;6179570;23;20016;-82
2022/10/22 12:42:10;;;;;;;19.77;11.90;;;15.30;99.90;;;;;;6155048;23;20021;-82
2022/10/22 12:44:35;;;;;;;22.00;14.60;;;15.20;99.90;;;;;;6179631;23;20043;-82
2022/10/22 12:47:01;;;;;;;21.80;12.43;;;15.20;99.90;;;;;;6154979;23;20452;-83
2022/10/22 12:49:39;;;;;;;21.70;12.88;;;15.10;99.90;;;;;;6179062;23;20020;-83
2022/10/22 12:52:10;;;;;;;28.67;14.25;;;15.00;99.90;;;;;;6155426;23;20465;-83